createdAt,value
2024-05-09T00:00:54.588Z,95844.00
2024-05-09T00:01:54.793Z,95842.00
2024-05-09T00:02:54.640Z,95841.00
2024-05-09T00:03:54.801Z,95841.00
2024-05-09T00:04:54.838Z,95839.00
2024-05-09T00:05:54.794Z,95840.00
2024-05-09T00:06:54.853Z,95839.00
2024-05-09T00:07:54.978Z,95838.00
2024-05-09T00:08:54.980Z,95839.00
2024-05-09T00:09:54.976Z,95838.00
2024-05-09T00:10:55.105Z,95838.00
2024-05-09T00:11:55.206Z,95838.00
2024-05-09T00:12:55.160Z,95838.00
2024-05-09T00:13:55.215Z,95839.00
2024-05-09T00:14:55.253Z,95838.00
2024-05-09T00:15:55.270Z,95837.00
2024-05-09T00:16:55.457Z,95840.00
2024-05-09T00:17:55.549Z,95840.00
2024-05-09T00:18:55.530Z,95839.00
2024-05-09T00:19:55.485Z,95838.00
2024-05-09T00:20:55.538Z,95838.00
2024-05-09T00:21:55.631Z,95838.00
2024-05-09T00:22:55.629Z,95840.00
2024-05-09T00:23:55.672Z,95842.00
2024-05-09T00:24:55.721Z,95840.00
2024-05-09T00:25:55.862Z,95843.00
2024-05-09T00:26:55.856Z,95840.00
2024-05-09T00:27:55.896Z,95842.00
2024-05-09T00:28:55.943Z,95840.00
2024-05-09T00:29:55.981Z,95838.00
2024-05-09T00:30:56.072Z,95836.00
2024-05-09T00:31:56.173Z,95834.00
2024-05-09T00:32:56.296Z,95833.00
2024-05-09T00:33:56.471Z,95830.00
2024-05-09T00:34:56.288Z,95830.00
2024-05-09T00:35:56.301Z,95829.00
2024-05-09T00:36:56.371Z,95828.00
2024-05-09T00:37:56.451Z,95831.00
2024-05-09T00:38:56.447Z,95828.00
2024-05-09T00:39:56.492Z,95828.00
2024-05-09T00:40:56.597Z,95829.00
2024-05-09T00:41:56.624Z,95826.00
2024-05-09T00:42:56.625Z,95826.00
2024-05-09T00:43:56.714Z,95823.00
2024-05-09T00:44:56.793Z,95823.00
2024-05-09T00:45:56.775Z,95823.00
2024-05-09T00:46:56.907Z,95823.00
2024-05-09T00:47:57.090Z,95820.00
2024-05-09T00:48:57.077Z,95821.00
2024-05-09T00:49:57.012Z,95820.00
2024-05-09T00:50:57.041Z,95820.00
2024-05-09T00:51:57.251Z,95817.00
2024-05-09T00:52:57.233Z,95815.00
2024-05-09T00:53:57.210Z,95814.00
2024-05-09T00:54:57.219Z,95812.00
2024-05-09T00:55:57.297Z,95810.00
2024-05-09T00:56:57.343Z,95808.00
2024-05-09T00:57:57.368Z,95804.00
2024-05-09T00:58:57.523Z,95805.00
2024-05-09T00:59:57.480Z,95802.00
2024-05-09T01:00:57.681Z,95802.00
2024-05-09T01:01:57.761Z,95798.00
2024-05-09T01:02:57.780Z,95797.00
2024-05-09T01:03:57.833Z,95796.00
2024-05-09T01:04:57.797Z,95793.00
2024-05-09T01:05:57.828Z,95793.00
2024-05-09T01:06:57.870Z,95790.00
2024-05-09T01:07:57.924Z,95791.00
2024-05-09T01:08:57.966Z,95791.00
2024-05-09T01:09:57.988Z,95789.00
2024-05-09T01:10:58.201Z,95789.00
2024-05-09T01:11:58.220Z,95788.00
2024-05-09T01:12:58.171Z,95789.00
2024-05-09T01:13:58.271Z,95786.00
2024-05-09T01:14:58.235Z,95788.00
2024-05-09T01:15:58.291Z,95786.00
2024-05-09T01:16:58.406Z,95787.00
2024-05-09T01:17:58.558Z,95788.00
2024-05-09T01:18:58.565Z,95789.00
2024-05-09T01:19:58.506Z,95791.00
2024-05-09T01:20:58.570Z,95790.00
2024-05-09T01:21:58.612Z,95789.00
2024-05-09T01:22:58.667Z,95792.00
2024-05-09T01:23:58.674Z,95791.00
2024-05-09T01:24:58.727Z,95794.00
2024-05-09T01:25:58.878Z,95794.00
2024-05-09T01:26:58.883Z,95792.00
2024-05-09T01:27:58.876Z,95797.00
2024-05-09T01:28:58.950Z,95798.00
2024-05-09T01:29:58.981Z,95795.00
2024-05-09T01:30:59.044Z,95796.00
2024-05-09T01:31:59.502Z,95796.00
2024-05-09T01:32:59.347Z,95801.00
2024-05-09T01:33:59.258Z,95798.00
2024-05-09T01:34:59.264Z,95797.00
2024-05-09T01:35:59.297Z,95797.00
2024-05-09T01:36:59.384Z,95797.00
2024-05-09T01:37:59.457Z,95797.00
2024-05-09T01:38:59.421Z,95798.00
2024-05-09T01:39:59.478Z,95796.00
2024-05-09T01:40:59.610Z,95797.00
2024-05-09T01:41:59.616Z,95797.00
2024-05-09T01:42:59.648Z,95797.00
2024-05-09T01:43:59.744Z,95794.00
2024-05-09T01:44:59.767Z,95791.00
2024-05-09T01:45:59.791Z,95794.00
2024-05-09T01:46:59.904Z,95794.00
2024-05-09T01:48:00.257Z,95794.00
2024-05-09T01:49:00.040Z,95792.00
2024-05-09T01:50:00.032Z,95793.00
2024-05-09T01:51:00.055Z,95793.00
2024-05-09T01:52:00.125Z,95794.00
2024-05-09T01:53:00.137Z,95796.00
2024-05-09T01:54:00.192Z,95794.00
2024-05-09T01:55:03.438Z,95795.00
2024-05-09T01:56:01.282Z,95796.00
2024-05-09T01:57:00.266Z,95797.00
2024-05-09T01:58:00.230Z,95794.00
2024-05-09T01:59:00.261Z,95794.00
2024-05-09T02:00:00.247Z,95793.00
2024-05-09T02:01:00.216Z,95795.00
2024-05-09T02:02:00.319Z,95791.00
2024-05-09T02:03:00.378Z,95795.00
2024-05-09T02:04:00.421Z,95795.00
2024-05-09T02:05:00.474Z,95795.00
2024-05-09T02:06:00.152Z,95793.00
2024-05-09T02:07:00.170Z,95793.00
2024-05-09T02:08:00.129Z,95794.00
2024-05-09T02:09:00.146Z,95793.00
2024-05-09T02:10:00.190Z,95796.00
2024-05-09T02:11:00.300Z,95793.00
2024-05-09T02:12:00.178Z,95793.00
2024-05-09T02:13:00.097Z,95792.00
2024-05-09T02:14:00.299Z,95792.00
2024-05-09T02:15:00.151Z,95790.00
2024-05-09T02:16:00.051Z,95789.00
2024-05-09T02:17:00.131Z,95790.00
2024-05-09T02:18:00.197Z,95790.00
2024-05-09T02:19:00.152Z,95789.00
2024-05-09T02:20:00.101Z,95788.00
2024-05-09T02:21:00.277Z,95792.00
2024-05-09T02:22:00.053Z,95792.00
2024-05-09T02:23:00.011Z,95792.00
2024-05-09T02:23:59.989Z,95795.00
2024-05-09T02:25:00.028Z,95792.00
2024-05-09T02:26:00.057Z,95791.00
2024-05-09T02:27:00.019Z,95788.00
2024-05-09T02:28:00.086Z,95787.00
2024-05-09T02:28:59.996Z,95788.00
2024-05-09T02:29:59.931Z,95787.00
2024-05-09T02:30:59.908Z,95789.00
2024-05-09T02:32:00.091Z,95784.00
2024-05-09T02:33:00.102Z,95785.00
2024-05-09T02:34:00.030Z,95784.00
2024-05-09T02:34:59.972Z,95781.00
2024-05-09T02:35:59.883Z,95781.00
2024-05-09T02:37:00.034Z,95781.00
2024-05-09T02:38:00.081Z,95782.00
2024-05-09T02:38:59.904Z,95783.00
2024-05-09T02:39:59.867Z,95781.00
2024-05-09T02:40:59.908Z,95780.00
2024-05-09T02:41:59.853Z,95782.00
2024-05-09T02:42:59.812Z,95780.00
2024-05-09T02:43:59.881Z,95782.00
2024-05-09T02:44:59.857Z,95780.00
2024-05-09T02:45:59.781Z,95780.00
2024-05-09T02:46:59.794Z,95779.00
2024-05-09T02:48:00.203Z,95778.00
2024-05-09T02:48:59.798Z,95778.00
2024-05-09T02:49:59.791Z,95779.00
2024-05-09T02:50:59.853Z,95779.00
2024-05-09T02:51:59.766Z,95782.00
2024-05-09T02:52:59.759Z,95782.00
2024-05-09T02:53:59.699Z,95779.00
2024-05-09T02:54:59.747Z,95781.00
2024-05-09T02:55:59.699Z,95780.00
2024-05-09T02:56:59.823Z,95780.00
2024-05-09T02:57:59.764Z,95781.00
2024-05-09T02:58:59.734Z,95783.00
2024-05-09T02:59:59.656Z,95779.00
2024-05-09T03:00:59.689Z,95778.00
2024-05-09T03:01:59.771Z,95778.00
2024-05-09T03:02:59.923Z,95778.00
2024-05-09T03:03:59.839Z,95779.00
2024-05-09T03:04:59.688Z,95779.00
2024-05-09T03:05:59.608Z,95779.00
2024-05-09T03:06:59.623Z,95778.00
2024-05-09T03:07:59.635Z,95777.00
2024-05-09T03:08:59.730Z,95776.00
2024-05-09T03:09:59.601Z,95775.00
2024-05-09T03:10:59.610Z,95775.00
2024-05-09T03:11:59.687Z,95773.00
2024-05-09T03:12:59.538Z,95774.00
2024-05-09T03:13:59.586Z,95774.00
2024-05-09T03:14:59.606Z,95774.00
2024-05-09T03:15:59.546Z,95775.00
2024-05-09T03:16:59.612Z,95774.00
2024-05-09T03:17:59.960Z,95778.00
2024-05-09T03:18:59.679Z,95779.00
2024-05-09T03:19:59.487Z,95778.00
2024-05-09T03:20:59.596Z,95781.00
2024-05-09T03:21:59.515Z,95780.00
2024-05-09T03:22:59.504Z,95781.00
2024-05-09T03:23:59.430Z,95784.00
2024-05-09T03:24:59.543Z,95784.00
2024-05-09T03:25:59.504Z,95785.00
2024-05-09T03:26:59.465Z,95783.00
2024-05-09T03:27:59.587Z,95786.00
2024-05-09T03:28:59.444Z,95786.00
2024-05-09T03:29:59.384Z,95784.00
2024-05-09T03:30:59.384Z,95787.00
2024-05-09T03:31:59.524Z,95785.00
2024-05-09T03:32:59.661Z,95785.00
2024-05-09T03:33:59.552Z,95783.00
2024-05-09T03:34:59.519Z,95784.00
2024-05-09T03:35:59.337Z,95780.00
2024-05-09T03:36:59.326Z,95782.00
2024-05-09T03:37:59.430Z,95785.00
2024-05-09T03:38:59.376Z,95785.00
2024-05-09T03:39:59.302Z,95786.00
2024-05-09T03:40:59.369Z,95787.00
2024-05-09T03:41:59.321Z,95786.00
2024-05-09T03:42:59.269Z,95786.00
2024-05-09T03:43:59.311Z,95786.00
2024-05-09T03:44:59.340Z,95784.00
2024-05-09T03:45:59.320Z,95785.00
2024-05-09T03:46:59.339Z,95784.00
2024-05-09T03:47:59.479Z,95786.00
2024-05-09T03:48:59.310Z,95782.00
2024-05-09T03:49:59.283Z,95783.00
2024-05-09T03:50:59.312Z,95783.00
2024-05-09T03:51:59.220Z,95784.00
2024-05-09T03:52:59.256Z,95786.00
2024-05-09T03:53:59.169Z,95788.00
2024-05-09T03:54:59.207Z,95790.00
2024-05-09T03:55:59.296Z,95792.00
2024-05-09T03:56:59.184Z,95795.00
2024-05-09T03:57:59.504Z,95797.00
2024-05-09T03:58:59.185Z,95800.00
2024-05-09T03:59:59.137Z,95798.00
2024-05-09T04:00:59.250Z,95798.00
2024-05-09T04:01:59.297Z,95801.00
2024-05-09T04:02:59.258Z,95800.00
2024-05-09T04:03:59.134Z,95802.00
2024-05-09T04:04:59.168Z,95802.00
2024-05-09T04:05:59.074Z,95802.00
2024-05-09T04:06:59.087Z,95805.00
2024-05-09T04:07:59.130Z,95805.00
2024-05-09T04:08:59.094Z,95807.00
2024-05-09T04:09:59.029Z,95807.00
2024-05-09T04:10:59.102Z,95808.00
2024-05-09T04:11:59.167Z,95807.00
2024-05-09T04:12:59.027Z,95808.00
2024-05-09T04:13:59.021Z,95810.00
2024-05-09T04:14:59.095Z,95807.00
2024-05-09T04:15:58.999Z,95806.00
2024-05-09T04:16:58.997Z,95806.00
2024-05-09T04:17:59.218Z,95806.00
2024-05-09T04:18:59.060Z,95806.00
2024-05-09T04:19:58.995Z,95808.00
2024-05-09T04:20:59.119Z,95807.00
2024-05-09T04:21:58.924Z,95807.00
2024-05-09T04:22:58.986Z,95806.00
2024-05-09T04:23:58.937Z,95807.00
2024-05-09T04:24:58.899Z,95807.00
2024-05-09T04:25:58.951Z,95807.00
2024-05-09T04:26:58.949Z,95808.00
2024-05-09T04:27:58.867Z,95808.00
2024-05-09T04:28:58.914Z,95809.00
2024-05-09T04:29:58.871Z,95812.00
2024-05-09T04:30:58.903Z,95814.00
2024-05-09T04:31:59.040Z,95813.00
2024-05-09T04:32:59.018Z,95815.00
2024-05-09T04:33:58.934Z,95814.00
2024-05-09T04:34:58.880Z,95814.00
2024-05-09T04:35:58.807Z,95814.00
2024-05-09T04:36:58.794Z,95813.00
2024-05-09T04:37:58.787Z,95813.00
2024-05-09T04:38:58.886Z,95813.00
2024-05-09T04:39:58.775Z,95815.00
2024-05-09T04:40:58.886Z,95813.00
2024-05-09T04:41:58.766Z,95815.00
2024-05-09T04:42:58.755Z,95816.00
2024-05-09T04:43:58.798Z,95813.00
2024-05-09T04:44:58.926Z,95815.00
2024-05-09T04:45:58.707Z,95813.00
2024-05-09T04:46:58.817Z,95815.00
2024-05-09T04:47:59.226Z,95816.00
2024-05-09T04:48:58.759Z,95816.00
2024-05-09T04:49:58.729Z,95817.00
2024-05-09T04:50:58.765Z,95817.00
2024-05-09T04:51:58.712Z,95819.00
2024-05-09T04:52:58.686Z,95821.00
2024-05-09T04:53:58.644Z,95822.00
2024-05-09T04:54:59.110Z,95822.00
2024-05-09T04:55:58.658Z,95825.00
2024-05-09T04:56:58.660Z,95827.00
2024-05-09T04:57:58.619Z,95827.00
2024-05-09T04:58:58.683Z,95827.00
2024-05-09T04:59:58.607Z,95827.00
2024-05-09T05:00:58.616Z,95828.00
2024-05-09T05:01:58.676Z,95828.00
2024-05-09T05:02:58.722Z,95830.00
2024-05-09T05:03:58.816Z,95827.00
2024-05-09T05:04:58.810Z,95832.00
2024-05-09T05:05:58.641Z,95828.00
2024-05-09T05:07:01.251Z,95830.00
2024-05-09T05:07:58.584Z,95828.00
2024-05-09T05:08:58.561Z,95828.00
2024-05-09T05:09:58.519Z,95828.00
2024-05-09T05:10:58.631Z,95826.00
2024-05-09T05:11:58.573Z,95828.00
2024-05-09T05:12:58.500Z,95826.00
2024-05-09T05:13:58.526Z,95825.00
2024-05-09T05:14:58.498Z,95825.00
2024-05-09T05:15:58.797Z,95828.00
2024-05-09T05:16:58.507Z,95829.00
2024-05-09T05:17:58.581Z,95830.00
2024-05-09T05:18:58.520Z,95833.00
2024-05-09T05:19:58.479Z,95832.00
2024-05-09T05:20:58.753Z,95831.00
2024-05-09T05:21:58.413Z,95832.00
2024-05-09T05:22:58.402Z,95831.00
2024-05-09T05:23:58.395Z,95833.00
2024-05-09T05:24:58.426Z,95830.00
2024-05-09T05:25:58.396Z,95832.00
2024-05-09T05:26:58.403Z,95829.00
2024-05-09T05:27:58.348Z,95832.00
2024-05-09T05:28:58.369Z,95832.00
2024-05-09T05:29:58.326Z,95833.00
2024-05-09T05:30:58.359Z,95833.00
2024-05-09T05:31:58.420Z,95834.00
2024-05-09T05:32:58.736Z,95833.00
2024-05-09T05:33:58.331Z,95833.00
2024-05-09T05:34:58.306Z,95834.00
2024-05-09T05:35:58.289Z,95836.00
2024-05-09T05:36:58.307Z,95835.00
2024-05-09T05:37:58.301Z,95839.00
2024-05-09T05:38:58.485Z,95838.00
2024-05-09T05:39:58.259Z,95839.00
2024-05-09T05:40:58.300Z,95839.00
2024-05-09T05:41:58.240Z,95840.00
2024-05-09T05:42:58.214Z,95839.00
2024-05-09T05:43:58.291Z,95839.00
2024-05-09T05:44:58.255Z,95839.00
2024-05-09T05:45:58.196Z,95841.00
2024-05-09T05:46:58.263Z,95840.00
2024-05-09T05:47:58.383Z,95841.00
2024-05-09T05:48:58.247Z,95841.00
2024-05-09T05:49:58.220Z,95840.00
2024-05-09T05:51:00.430Z,95841.00
2024-05-09T05:51:58.135Z,95841.00
2024-05-09T05:52:58.147Z,95842.00
2024-05-09T05:53:58.249Z,95840.00
2024-05-09T05:54:58.115Z,95841.00
2024-05-09T05:55:58.159Z,95840.00
2024-05-09T05:56:58.115Z,95840.00
2024-05-09T05:57:58.082Z,95839.00
2024-05-09T05:58:58.167Z,95840.00
2024-05-09T05:59:58.050Z,95839.00
2024-05-09T06:00:58.106Z,95839.00
2024-05-09T06:01:58.117Z,95837.00
2024-05-09T06:02:58.128Z,95837.00
2024-05-09T06:03:58.177Z,95838.00
2024-05-09T06:04:58.111Z,95837.00
2024-05-09T06:05:58.097Z,95833.00
2024-05-09T06:06:58.000Z,95832.00
2024-05-09T06:07:58.094Z,95834.00
2024-05-09T06:08:58.075Z,95834.00
2024-05-09T06:09:57.983Z,95832.00
2024-05-09T06:10:58.072Z,95833.00
2024-05-09T06:11:58.115Z,95833.00
2024-05-09T06:12:57.955Z,95831.00
2024-05-09T06:13:58.002Z,95831.00
2024-05-09T06:14:57.993Z,95832.00
2024-05-09T06:15:57.924Z,95831.00
2024-05-09T06:16:58.393Z,95835.00
2024-05-09T06:17:58.136Z,95833.00
2024-05-09T06:18:58.063Z,95833.00
2024-05-09T06:19:57.896Z,95834.00
2024-05-09T06:20:58.155Z,95833.00
2024-05-09T06:21:57.893Z,95829.00
2024-05-09T06:22:57.895Z,95829.00
2024-05-09T06:23:57.867Z,95828.00
2024-05-09T06:24:57.862Z,95828.00
2024-05-09T06:25:57.902Z,95827.00
2024-05-09T06:26:57.940Z,95828.00
2024-05-09T06:27:57.826Z,95826.00
2024-05-09T06:28:57.892Z,95828.00
2024-05-09T06:29:57.796Z,95826.00
2024-05-09T06:30:57.830Z,95827.00
2024-05-09T06:32:00.139Z,95826.00
2024-05-09T06:32:58.081Z,95826.00
2024-05-09T06:33:58.058Z,95826.00
2024-05-09T06:34:57.985Z,95827.00
2024-05-09T06:35:57.864Z,95826.00
2024-05-09T06:36:57.857Z,95826.00
2024-05-09T06:37:57.864Z,95825.00
2024-05-09T06:38:57.928Z,95823.00
2024-05-09T06:39:57.944Z,95822.00
2024-05-09T06:40:58.059Z,95822.00
2024-05-09T06:41:58.098Z,95821.00
2024-05-09T06:42:58.083Z,95822.00
2024-05-09T06:43:58.217Z,95821.00
2024-05-09T06:44:58.198Z,95822.00
2024-05-09T06:45:58.250Z,95821.00
2024-05-09T06:46:59.854Z,95823.00
2024-05-09T06:47:58.483Z,95824.00
2024-05-09T06:48:58.509Z,95824.00
2024-05-09T06:49:58.300Z,95824.00
2024-05-09T06:50:58.262Z,95827.00
2024-05-09T06:51:58.278Z,95829.00
2024-05-09T06:52:58.399Z,95825.00
2024-05-09T06:53:58.370Z,95829.00
2024-05-09T06:54:58.389Z,95827.00
2024-05-09T06:55:58.499Z,95827.00
2024-05-09T06:56:58.504Z,95828.00
2024-05-09T06:57:58.557Z,95828.00
2024-05-09T06:58:58.668Z,95828.00
2024-05-09T06:59:58.733Z,95828.00
2024-05-09T07:00:58.702Z,95826.00
2024-05-09T07:01:58.801Z,95826.00
2024-05-09T07:03:01.675Z,95826.00
2024-05-09T07:03:58.866Z,95824.00
2024-05-09T07:04:58.919Z,95827.00
2024-05-09T07:05:58.890Z,95827.00
2024-05-09T07:06:58.810Z,95828.00
2024-05-09T07:07:58.765Z,95829.00
2024-05-09T07:08:58.774Z,95829.00
2024-05-09T07:09:58.770Z,95830.00
2024-05-09T07:10:58.780Z,95831.00
2024-05-09T07:11:58.798Z,95830.00
2024-05-09T07:12:58.705Z,95829.00
2024-05-09T07:13:58.742Z,95828.00
2024-05-09T07:14:58.707Z,95828.00
2024-05-09T07:15:58.710Z,95826.00
2024-05-09T07:16:58.796Z,95826.00
2024-05-09T07:17:58.821Z,95825.00
2024-05-09T07:18:58.791Z,95826.00
2024-05-09T07:19:58.853Z,95824.00
2024-05-09T07:20:58.651Z,95822.00
2024-05-09T07:21:58.646Z,95821.00
2024-05-09T07:22:58.700Z,95820.00
2024-05-09T07:23:58.659Z,95817.00
2024-05-09T07:24:58.622Z,95816.00
2024-05-09T07:25:58.604Z,95813.00
2024-05-09T07:26:58.580Z,95813.00
2024-05-09T07:27:58.709Z,95811.00
2024-05-09T07:28:58.618Z,95813.00
2024-05-09T07:29:58.588Z,95811.00
2024-05-09T07:30:58.618Z,95811.00
2024-05-09T07:31:58.587Z,95811.00
2024-05-09T07:32:58.867Z,95810.00
2024-05-09T07:33:58.612Z,95809.00
2024-05-09T07:34:58.561Z,95810.00
2024-05-09T07:35:58.490Z,95809.00
2024-05-09T07:36:58.498Z,95813.00
2024-05-09T07:37:58.666Z,95812.00
2024-05-09T07:38:58.483Z,95812.00
2024-05-09T07:39:58.596Z,95814.00
2024-05-09T07:40:58.509Z,95811.00
2024-05-09T07:41:58.454Z,95812.00
2024-05-09T07:42:58.463Z,95811.00
2024-05-09T07:43:58.447Z,95813.00
2024-05-09T07:45:14.739Z,95812.00
2024-05-09T07:46:23.407Z,95812.00
2024-05-09T07:49:44.362Z,95810.00
2024-05-09T07:51:47.595Z,95806.00
2024-05-09T07:53:00.962Z,95804.00
2024-05-09T07:53:22.079Z,95804.00
2024-05-09T07:54:00.698Z,95802.00
2024-05-09T07:54:58.759Z,95801.00
2024-05-09T07:55:58.575Z,95802.00
2024-05-09T07:56:58.404Z,95801.00
2024-05-09T07:57:58.508Z,95800.00
2024-05-09T07:58:58.293Z,95800.00
2024-05-09T07:59:58.276Z,95799.00
2024-05-09T08:00:58.408Z,95800.00
2024-05-09T08:01:58.342Z,95801.00
2024-05-09T08:02:58.378Z,95798.00
2024-05-09T08:03:58.658Z,95799.00
2024-05-09T08:04:58.347Z,95797.00
2024-05-09T08:05:58.247Z,95798.00
2024-05-09T08:06:58.274Z,95798.00
2024-05-09T08:07:58.220Z,95798.00
2024-05-09T08:09:02.821Z,95797.00
2024-05-09T08:09:59.269Z,95797.00
2024-05-09T08:10:58.201Z,95794.00
2024-05-09T08:11:58.237Z,95795.00
2024-05-09T08:12:58.228Z,95795.00
2024-05-09T08:13:58.163Z,95793.00
2024-05-09T08:14:58.153Z,95792.00
2024-05-09T08:15:58.249Z,95792.00
2024-05-09T08:16:58.220Z,95791.00
2024-05-09T08:17:58.275Z,95790.00
2024-05-09T08:18:58.310Z,95792.00
2024-05-09T08:19:58.112Z,95791.00
2024-05-09T08:20:58.108Z,95792.00
2024-05-09T08:21:58.160Z,95790.00
2024-05-09T08:22:58.089Z,95791.00
2024-05-09T08:23:58.078Z,95791.00
2024-05-09T08:24:58.132Z,95789.00
2024-05-09T08:25:58.081Z,95789.00
2024-05-09T08:26:58.063Z,95788.00
2024-05-09T08:27:58.110Z,95787.00
2024-05-09T08:28:58.037Z,95786.00
2024-05-09T08:29:58.133Z,95786.00
2024-05-09T08:30:58.156Z,95785.00
2024-05-09T08:31:58.070Z,95783.00
2024-05-09T08:32:58.080Z,95782.00
2024-05-09T08:33:58.178Z,95779.00
2024-05-09T08:34:58.002Z,95779.00
2024-05-09T08:35:57.971Z,95780.00
2024-05-09T08:37:01.775Z,95781.00
2024-05-09T08:37:59.111Z,95783.00
2024-05-09T08:38:57.939Z,95781.00
2024-05-09T08:39:58.075Z,95784.00
2024-05-09T08:40:57.921Z,95782.00
2024-05-09T08:41:57.911Z,95782.00
2024-05-09T08:42:58.017Z,95782.00
2024-05-09T08:43:57.919Z,95782.00
2024-05-09T08:44:57.927Z,95781.00
2024-05-09T08:45:58.109Z,95780.00
2024-05-09T08:46:57.885Z,95779.00
2024-05-09T08:47:58.032Z,95780.00
2024-05-09T08:48:57.973Z,95776.00
2024-05-09T08:49:57.930Z,95778.00
2024-05-09T08:50:57.840Z,95777.00
2024-05-09T08:51:57.870Z,95775.00
2024-05-09T08:52:57.831Z,95778.00
2024-05-09T08:53:57.794Z,95775.00
2024-05-09T08:54:57.837Z,95775.00
2024-05-09T08:55:57.796Z,95774.00
2024-05-09T08:56:57.793Z,95772.00
2024-05-09T08:57:57.862Z,95771.00
2024-05-09T08:58:57.762Z,95773.00
2024-05-09T08:59:57.774Z,95771.00
2024-05-09T09:00:57.946Z,95771.00
2024-05-09T09:01:57.838Z,95771.00
2024-05-09T09:02:57.764Z,95771.00
2024-05-09T09:03:57.854Z,95770.00
2024-05-09T09:04:57.801Z,95773.00
2024-05-09T09:05:57.711Z,95769.00
2024-05-09T09:06:58.759Z,95766.00
2024-05-09T09:07:57.692Z,95767.00
2024-05-09T09:08:57.727Z,95764.00
2024-05-09T09:09:57.754Z,95762.00
2024-05-09T09:10:57.676Z,95761.00
2024-05-09T09:11:57.700Z,95759.00
2024-05-09T09:12:57.639Z,95757.00
2024-05-09T09:13:57.677Z,95756.00
2024-05-09T09:14:57.643Z,95757.00
2024-05-09T09:15:58.050Z,95756.00
2024-05-09T09:16:57.704Z,95757.00
2024-05-09T09:17:57.855Z,95754.00
2024-05-09T09:18:58.042Z,95756.00
2024-05-09T09:19:57.701Z,95755.00
2024-05-09T09:20:57.563Z,95754.00
2024-05-09T09:21:57.642Z,95754.00
2024-05-09T09:22:57.552Z,95751.00
2024-05-09T09:23:57.550Z,95749.00
2024-05-09T09:24:57.632Z,95747.00
2024-05-09T09:25:57.522Z,95750.00
2024-05-09T09:26:57.559Z,95750.00
2024-05-09T09:27:57.655Z,95745.00
2024-05-09T09:28:57.492Z,95745.00
2024-05-09T09:29:57.565Z,95743.00
2024-05-09T09:30:57.506Z,95742.00
2024-05-09T09:31:57.525Z,95742.00
2024-05-09T09:32:57.808Z,95742.00
2024-05-09T09:33:57.950Z,95744.00
2024-05-09T09:34:57.711Z,95744.00
2024-05-09T09:35:57.726Z,95742.00
2024-05-09T09:36:57.800Z,95743.00
2024-05-09T09:37:57.844Z,95740.00
2024-05-09T09:38:57.916Z,95740.00
2024-05-09T09:39:57.960Z,95737.00
2024-05-09T09:40:58.019Z,95734.00
2024-05-09T09:41:58.017Z,95734.00
2024-05-09T09:42:58.199Z,95733.00
2024-05-09T09:43:58.120Z,95732.00
2024-05-09T09:45:04.615Z,95729.00
2024-05-09T09:45:59.199Z,95728.00
2024-05-09T09:46:58.221Z,95728.00
2024-05-09T09:47:58.272Z,95725.00
2024-05-09T09:48:58.307Z,95727.00
2024-05-09T09:49:58.128Z,95724.00
2024-05-09T09:50:58.119Z,95725.00
2024-05-09T09:51:58.131Z,95725.00
2024-05-09T09:52:58.095Z,95720.00
2024-05-09T09:53:58.146Z,95718.00
2024-05-09T09:54:58.115Z,95718.00
2024-05-09T09:55:58.075Z,95718.00
2024-05-09T09:56:58.066Z,95716.00
2024-05-09T09:57:58.164Z,95715.00
2024-05-09T09:58:58.079Z,95713.00
2024-05-09T09:59:58.076Z,95715.00
2024-05-09T10:00:58.149Z,95714.00
2024-05-09T10:01:58.194Z,95710.00
2024-05-09T10:02:58.066Z,95712.00
2024-05-09T10:03:58.162Z,95708.00
2024-05-09T10:04:58.108Z,95710.00
2024-05-09T10:05:58.165Z,95710.00
2024-05-09T10:06:58.027Z,95705.00
2024-05-09T10:07:58.049Z,95706.00
2024-05-09T10:08:58.062Z,95705.00
2024-05-09T10:09:57.974Z,95704.00
2024-05-09T10:10:58.096Z,95701.00
2024-05-09T10:12:00.130Z,95697.00
2024-05-09T10:12:57.995Z,95695.00
2024-05-09T10:13:57.978Z,95694.00
2024-05-09T10:14:57.928Z,95690.00
2024-05-09T10:15:58.058Z,95688.00
2024-05-09T10:16:57.894Z,95689.00
2024-05-09T10:17:58.020Z,95686.00
2024-05-09T10:18:58.262Z,95686.00
2024-05-09T10:19:58.007Z,95684.00
2024-05-09T10:20:58.177Z,95680.00
2024-05-09T10:21:57.901Z,95678.00
2024-05-09T10:22:57.884Z,95676.00
2024-05-09T10:23:57.869Z,95676.00
2024-05-09T10:24:57.878Z,95677.00
2024-05-09T10:25:57.825Z,95676.00
2024-05-09T10:26:57.803Z,95673.00
2024-05-09T10:27:57.886Z,95673.00
2024-05-09T10:28:57.793Z,95672.00
2024-05-09T10:29:57.847Z,95674.00
2024-05-09T10:30:57.797Z,95671.00
2024-05-09T10:31:57.754Z,95669.00
2024-05-09T10:32:57.825Z,95672.00
2024-05-09T10:33:57.986Z,95670.00
2024-05-09T10:34:57.914Z,95672.00
2024-05-09T10:35:57.748Z,95670.00
2024-05-09T10:36:57.780Z,95671.00
2024-05-09T10:37:57.699Z,95671.00
2024-05-09T10:38:57.680Z,95671.00
2024-05-09T10:39:57.702Z,95668.00
2024-05-09T10:40:57.672Z,95665.00
2024-05-09T10:41:57.836Z,95665.00
2024-05-09T10:42:57.759Z,95663.00
2024-05-09T10:43:57.664Z,95662.00
2024-05-09T10:44:57.695Z,95659.00
2024-05-09T10:45:57.704Z,95661.00
2024-05-09T10:46:57.655Z,95656.00
2024-05-09T10:47:57.844Z,95656.00
2024-05-09T10:48:57.885Z,95653.00
2024-05-09T10:49:57.636Z,95652.00
2024-05-09T10:50:57.583Z,95648.00
2024-05-09T10:51:57.701Z,95649.00
2024-05-09T10:52:57.574Z,95647.00
2024-05-09T10:53:57.600Z,95648.00
2024-05-09T10:54:57.567Z,95645.00
2024-05-09T10:55:57.561Z,95643.00
2024-05-09T10:56:57.536Z,95643.00
2024-05-09T10:57:57.621Z,95640.00
2024-05-09T10:58:57.632Z,95639.00
2024-05-09T10:59:57.524Z,95636.00
2024-05-09T11:00:57.622Z,95634.00
2024-05-09T11:01:57.549Z,95637.00
2024-05-09T11:02:57.590Z,95637.00
2024-05-09T11:03:57.723Z,95635.00
2024-05-09T11:04:57.560Z,95635.00
2024-05-09T11:05:57.617Z,95633.00
2024-05-09T11:06:57.593Z,95632.00
2024-05-09T11:07:57.466Z,95631.00
2024-05-09T11:08:57.445Z,95627.00
2024-05-09T11:09:57.496Z,95628.00
2024-05-09T11:10:57.446Z,95626.00
2024-05-09T11:11:57.503Z,95627.00
2024-05-09T11:12:57.432Z,95626.00
2024-05-09T11:13:57.384Z,95623.00
2024-05-09T11:14:57.387Z,95618.00
2024-05-09T11:15:57.400Z,95617.00
2024-05-09T11:16:57.351Z,95619.00
2024-05-09T11:17:57.469Z,95618.00
2024-05-09T11:18:57.891Z,95610.00
2024-05-09T11:19:57.461Z,95613.00
2024-05-09T11:20:57.326Z,95611.00
2024-05-09T11:21:57.352Z,95612.00
2024-05-09T11:22:57.293Z,95613.00
2024-05-09T11:23:57.311Z,95611.00
2024-05-09T11:24:57.332Z,95610.00
2024-05-09T11:25:57.279Z,95610.00
2024-05-09T11:26:57.260Z,95606.00
2024-05-09T11:27:57.365Z,95606.00
2024-05-09T11:28:57.250Z,95604.00
2024-05-09T11:29:57.374Z,95603.00
2024-05-09T11:30:57.263Z,95602.00
2024-05-09T11:31:57.325Z,95604.00
2024-05-09T11:32:57.348Z,95606.00
2024-05-09T11:33:57.389Z,95600.00
2024-05-09T11:34:57.195Z,95601.00
2024-05-09T11:35:57.230Z,95600.00
2024-05-09T11:36:57.230Z,95597.00
2024-05-09T11:37:57.172Z,95594.00
2024-05-09T11:38:57.163Z,95590.00
2024-05-09T11:39:57.218Z,95590.00
2024-05-09T11:40:57.173Z,95591.00
2024-05-09T11:41:57.169Z,95592.00
2024-05-09T11:42:57.242Z,95587.00
2024-05-09T11:43:57.124Z,95584.00
2024-05-09T11:44:57.115Z,95587.00
2024-05-09T11:45:57.249Z,95586.00
2024-05-09T11:46:57.096Z,95585.00
2024-05-09T11:47:57.187Z,95581.00